createdAt,value
2019-01-15T00:01:46.916Z,15.50
2019-01-15T00:04:16.954Z,12.47
2019-01-15T00:06:47.070Z,10.80
2019-01-15T00:09:17.100Z,12.43
2019-01-15T00:11:47.250Z,14.03
2019-01-15T00:14:17.280Z,18.67
2019-01-15T00:16:47.354Z,16.97
2019-01-15T00:19:17.489Z,14.90
2019-01-15T00:21:47.527Z,10.20
2019-01-15T00:24:17.589Z,12.53
2019-01-15T00:26:47.829Z,14.23
2019-01-15T00:29:17.871Z,14.63
2019-01-15T00:31:48.031Z,12.73
2019-01-15T00:34:18.076Z,13.60
2019-01-15T00:36:48.251Z,9.83
2019-01-15T00:39:18.291Z,17.03
2019-01-15T00:41:48.349Z,13.80
2019-01-15T00:44:18.406Z,14.07
2019-01-15T00:46:48.480Z,10.50
2019-01-15T00:49:18.487Z,13.40
2019-01-15T00:51:48.551Z,11.67
2019-01-15T00:54:18.692Z,16.60
2019-01-15T00:56:48.736Z,9.67
2019-01-15T00:59:18.757Z,14.27
2019-01-15T01:01:48.789Z,16.37
2019-01-15T01:04:19.010Z,21.17
2019-01-15T01:06:49.013Z,12.97
2019-01-15T01:09:20.133Z,10.83
2019-01-15T01:11:50.350Z,15.00
2019-01-15T01:14:20.378Z,14.97
2019-01-15T01:16:50.461Z,12.50
2019-01-15T01:19:20.473Z,14.83
2019-01-15T01:21:50.582Z,18.30
2019-01-15T01:24:20.630Z,18.23
2019-01-15T01:26:51.196Z,12.80
2019-01-15T01:29:21.214Z,18.23
2019-01-15T01:31:55.159Z,12.33
2019-01-15T01:34:34.829Z,13.23
2019-01-15T01:37:12.816Z,21.07
2019-01-15T01:39:51.361Z,19.90
2019-01-15T01:42:31.153Z,19.07
2019-01-15T01:45:12.196Z,13.60
2019-01-15T01:47:50.776Z,15.73
2019-01-15T01:50:28.219Z,15.20
2019-01-15T01:52:58.521Z,16.93
2019-01-15T01:55:28.518Z,14.67
2019-01-15T01:57:58.765Z,18.37
2019-01-15T02:00:28.861Z,11.57
2019-01-15T02:02:58.872Z,18.90
2019-01-15T02:05:29.029Z,12.47
2019-01-15T02:07:59.239Z,10.30
2019-01-15T02:10:29.374Z,15.50
2019-01-15T02:12:59.442Z,13.03
2019-01-15T02:15:29.632Z,15.47
2019-01-15T02:17:59.673Z,23.50
2019-01-15T02:20:29.793Z,14.67
2019-01-15T02:22:59.787Z,18.47
2019-01-15T02:25:29.861Z,15.50
2019-01-15T02:27:59.873Z,19.83
2019-01-15T02:30:29.956Z,20.13
2019-01-15T02:33:00.014Z,22.47
2019-01-15T02:35:30.033Z,18.10
2019-01-15T02:38:00.108Z,20.47
2019-01-15T02:40:30.280Z,25.03
2019-01-15T02:43:00.294Z,17.63
2019-01-15T02:45:30.471Z,17.23
2019-01-15T02:48:00.435Z,15.90
2019-01-15T02:50:30.489Z,17.63
2019-01-15T02:53:00.543Z,17.97
2019-01-15T02:55:30.546Z,15.80
2019-01-15T02:58:00.701Z,18.40
2019-01-15T03:00:30.729Z,17.47
2019-01-15T03:03:00.738Z,21.10
2019-01-15T03:05:30.794Z,14.73
2019-01-15T03:08:00.802Z,19.73
2019-01-15T03:10:30.860Z,20.10
2019-01-15T03:13:01.005Z,21.60
2019-01-15T03:15:30.992Z,18.00
2019-01-15T03:18:01.055Z,17.93
2019-01-15T03:20:31.095Z,24.57
2019-01-15T03:23:01.105Z,21.10
2019-01-15T03:25:31.172Z,20.63
2019-01-15T03:28:01.159Z,21.40
2019-01-15T03:30:31.206Z,23.57
2019-01-15T03:33:01.301Z,11.77
2019-01-15T03:35:31.300Z,20.37
2019-01-15T03:38:01.378Z,27.60
2019-01-15T03:40:31.433Z,23.90
2019-01-15T03:43:03.834Z,19.17
2019-01-15T03:45:33.243Z,15.23
2019-01-15T03:48:03.269Z,23.17
2019-01-15T03:50:33.287Z,18.43
2019-01-15T03:53:03.361Z,19.87
2019-01-15T03:55:33.421Z,18.73
2019-01-15T03:58:03.582Z,17.87
2019-01-15T04:00:33.732Z,11.47
2019-01-15T04:03:03.741Z,20.53
2019-01-15T04:05:33.841Z,17.83
2019-01-15T04:08:03.945Z,22.33
2019-01-15T04:10:34.025Z,14.60
2019-01-15T04:13:10.988Z,18.57
2019-01-15T04:15:35.845Z,14.20
2019-01-15T04:18:06.098Z,19.03
2019-01-15T04:20:36.161Z,12.00
2019-01-15T04:23:06.162Z,25.30
2019-01-15T04:25:37.278Z,17.00
2019-01-15T04:28:07.382Z,13.40
2019-01-15T04:30:37.659Z,19.73
2019-01-15T04:33:08.143Z,23.60
2019-01-15T04:35:38.322Z,24.37
2019-01-15T04:38:08.366Z,17.67
2019-01-15T04:40:38.479Z,12.07
2019-01-15T04:43:08.495Z,17.17
2019-01-15T04:45:39.029Z,19.27
2019-01-15T04:48:09.379Z,16.40
2019-01-15T04:50:39.548Z,16.00
2019-01-15T04:53:09.589Z,19.03
2019-01-15T04:55:39.755Z,20.53
2019-01-15T04:58:09.852Z,19.77
2019-01-15T05:00:41.223Z,23.83
2019-01-15T05:03:12.371Z,14.83
2019-01-15T05:05:42.449Z,13.83
2019-01-15T05:08:12.501Z,19.13
2019-01-15T05:10:42.715Z,17.37
2019-01-15T05:13:12.773Z,13.80
2019-01-15T05:15:43.103Z,22.10
2019-01-15T05:18:14.254Z,12.70
2019-01-15T05:20:44.531Z,20.57
2019-01-15T05:23:14.524Z,22.70
2019-01-15T05:25:44.572Z,13.73
2019-01-15T05:28:14.564Z,22.27
2019-01-15T05:30:44.671Z,20.73
2019-01-15T05:33:14.858Z,14.70
2019-01-15T05:35:45.013Z,21.53
2019-01-15T05:38:15.102Z,12.83
2019-01-15T05:40:45.174Z,18.87
2019-01-15T05:43:15.211Z,32.10
2019-01-15T05:45:47.930Z,18.90
2019-01-15T05:48:21.810Z,20.87
2019-01-15T05:50:55.031Z,18.90
2019-01-15T05:53:25.095Z,25.70
2019-01-15T05:55:55.118Z,20.17
2019-01-15T05:58:25.177Z,22.33
2019-01-15T06:00:55.296Z,18.60
2019-01-15T06:03:36.735Z,15.80
2019-01-15T06:06:07.007Z,16.93
2019-01-15T06:08:37.020Z,17.53
2019-01-15T06:11:07.056Z,14.90
2019-01-15T06:13:42.632Z,17.13
2019-01-15T06:16:08.952Z,22.53
2019-01-15T06:18:43.020Z,17.97
2019-01-15T06:21:13.263Z,14.10
2019-01-15T06:23:43.383Z,21.73
2019-01-15T06:26:13.431Z,19.97
2019-01-15T06:28:44.176Z,15.73
2019-01-15T06:31:15.829Z,20.17
2019-01-15T06:33:45.892Z,16.40
2019-01-15T06:36:15.916Z,19.13
2019-01-15T06:38:46.202Z,20.30
2019-01-15T06:41:17.540Z,22.60
2019-01-15T06:43:50.215Z,17.03
2019-01-15T06:46:19.417Z,26.30
2019-01-15T06:48:49.461Z,17.90
2019-01-15T06:51:19.512Z,21.27
2019-01-15T06:53:49.740Z,22.57
2019-01-15T06:56:19.782Z,18.70
2019-01-15T06:58:49.867Z,16.10
2019-01-15T07:01:19.903Z,18.33
2019-01-15T07:03:49.966Z,15.50
2019-01-15T07:06:20.007Z,17.33
2019-01-15T07:08:51.113Z,13.57
2019-01-15T07:11:21.813Z,15.00
2019-01-15T07:13:56.975Z,10.37
2019-01-15T07:16:23.804Z,13.33
2019-01-15T07:18:53.886Z,16.97
2019-01-15T07:21:24.112Z,18.20
2019-01-15T07:23:54.325Z,16.40
2019-01-15T07:26:24.501Z,16.03
2019-01-15T07:28:54.474Z,27.10
2019-01-15T07:31:24.511Z,13.37
2019-01-15T07:33:55.716Z,16.47
2019-01-15T07:36:25.794Z,9.33
2019-01-15T07:38:55.840Z,15.27
2019-01-15T07:41:25.880Z,17.20
2019-01-15T07:43:56.286Z,11.13
2019-01-15T07:46:26.321Z,17.17
2019-01-15T07:48:56.414Z,12.90
2019-01-15T07:51:26.447Z,12.60
2019-01-15T07:53:56.484Z,14.57
2019-01-15T07:56:26.614Z,17.60
2019-01-15T07:58:56.666Z,17.57
2019-01-15T08:01:27.011Z,16.13
2019-01-15T08:03:57.029Z,14.03
2019-01-15T08:06:27.874Z,11.67
2019-01-15T08:08:58.084Z,16.40
2019-01-15T08:11:28.192Z,10.80
2019-01-15T08:13:58.236Z,15.90
2019-01-15T08:16:28.268Z,14.67
2019-01-15T08:18:58.392Z,12.83
2019-01-15T08:21:28.462Z,18.60
2019-01-15T08:23:58.499Z,20.47
2019-01-15T08:26:28.556Z,10.47
2019-01-15T08:28:58.600Z,19.93
2019-01-15T08:31:28.652Z,20.63
2019-01-15T08:33:58.734Z,32.80
2019-01-15T08:36:28.770Z,16.93
2019-01-15T08:38:58.831Z,22.90
2019-01-15T08:41:28.933Z,14.33
2019-01-15T08:43:59.008Z,12.70
2019-01-15T08:46:29.062Z,16.27
2019-01-15T08:48:59.080Z,22.93
2019-01-15T08:51:29.484Z,19.63
2019-01-15T08:53:59.592Z,37.87
2019-01-15T08:56:29.764Z,19.70
2019-01-15T08:58:59.820Z,20.10
2019-01-15T09:01:29.876Z,21.20
2019-01-15T09:03:59.936Z,12.20
2019-01-15T09:06:29.986Z,23.63
2019-01-15T09:09:01.452Z,15.97
2019-01-15T09:11:31.499Z,17.57
2019-01-15T09:14:01.603Z,18.27
2019-01-15T09:16:31.679Z,14.00
2019-01-15T09:19:01.764Z,13.83
2019-01-15T09:21:31.822Z,14.83
2019-01-15T09:24:04.997Z,7.97
2019-01-15T09:26:35.869Z,13.40
2019-01-15T09:29:05.897Z,15.80
2019-01-15T09:31:36.575Z,13.97
2019-01-15T09:34:06.744Z,11.63
2019-01-15T09:36:38.321Z,13.00
2019-01-15T09:39:10.164Z,15.80
2019-01-15T09:41:40.265Z,9.70
2019-01-15T09:44:10.302Z,15.77
2019-01-15T09:46:40.402Z,19.30
2019-01-15T09:49:10.475Z,13.13
2019-01-15T09:51:41.198Z,21.87
2019-01-15T09:54:11.404Z,14.40
2019-01-15T09:56:41.873Z,18.73
2019-01-15T09:59:11.977Z,8.07
2019-01-15T10:01:42.062Z,17.07
2019-01-15T10:04:12.093Z,15.60
2019-01-15T10:06:43.039Z,11.20
2019-01-15T10:09:13.087Z,12.13
2019-01-15T10:11:43.124Z,13.73
2019-01-15T10:14:13.150Z,13.80
2019-01-15T10:16:43.200Z,8.87
2019-01-15T10:19:13.212Z,8.23
2019-01-15T10:21:44.241Z,12.17
2019-01-15T10:24:14.386Z,8.97
2019-01-15T10:26:44.441Z,12.80
2019-01-15T10:29:14.472Z,17.30
2019-01-15T10:32:25.165Z,12.13
2019-01-15T10:34:55.820Z,7.10
2019-01-15T10:37:25.868Z,11.23
2019-01-15T10:39:55.936Z,7.37
2019-01-15T10:42:25.935Z,13.23
2019-01-15T10:44:56.005Z,12.43
2019-01-15T10:47:26.133Z,10.90
2019-01-15T10:49:56.173Z,10.00
2019-01-15T10:52:26.867Z,10.93
2019-01-15T10:54:57.150Z,15.33
2019-01-15T10:57:27.155Z,7.17
2019-01-15T10:59:57.187Z,14.50
2019-01-15T11:02:27.256Z,10.57
2019-01-15T11:04:57.288Z,8.80
2019-01-15T11:07:30.160Z,7.80
2019-01-15T11:10:00.189Z,16.57
2019-01-15T11:12:30.195Z,13.97
2019-01-15T11:15:00.588Z,9.67
2019-01-15T11:17:30.646Z,13.43
2019-01-15T11:20:00.682Z,10.73
2019-01-15T11:22:30.724Z,13.20
2019-01-15T11:25:00.745Z,10.53
2019-01-15T11:27:30.801Z,9.50
2019-01-15T11:30:00.834Z,7.97
2019-01-15T11:32:30.880Z,8.73
2019-01-15T11:35:00.890Z,17.00
2019-01-15T11:37:31.060Z,8.87
2019-01-15T11:40:01.070Z,11.67
2019-01-15T11:42:31.109Z,11.97
2019-01-15T11:45:03.578Z,7.00
2019-01-15T11:47:32.974Z,15.10
2019-01-15T11:50:03.173Z,17.83
2019-01-15T11:52:33.212Z,9.50
2019-01-15T11:55:03.406Z,12.83
2019-01-15T11:57:33.585Z,10.03
2019-01-15T12:00:05.009Z,9.53
2019-01-15T12:02:44.537Z,10.17
2019-01-15T12:05:28.035Z,15.20
2019-01-15T12:08:10.181Z,10.80
2019-01-15T12:11:05.091Z,13.00
2019-01-15T12:13:59.175Z,16.60
2019-01-15T12:16:51.277Z,8.77
2019-01-15T12:19:37.421Z,9.10
2019-01-15T12:22:29.709Z,15.93
2019-01-15T12:25:17.290Z,15.33
2019-01-15T12:28:05.461Z,17.33
2019-01-15T12:30:57.421Z,16.27
2019-01-15T12:33:44.804Z,14.97
2019-01-15T12:36:45.944Z,7.80
2019-01-15T12:39:53.382Z,15.67
2019-01-15T12:42:42.428Z,12.57
2019-01-15T12:45:42.016Z,16.27
2019-01-15T12:48:29.792Z,15.53
2019-01-15T12:51:10.912Z,17.73
2019-01-15T12:54:11.844Z,13.27
2019-01-15T12:57:07.092Z,14.53
2019-01-15T13:00:01.937Z,15.77
2019-01-15T13:02:50.834Z,17.30
2019-01-15T13:05:46.081Z,9.40
2019-01-15T13:08:29.437Z,10.73
2019-01-15T13:11:12.798Z,11.50
2019-01-15T13:13:58.367Z,11.33
2019-01-15T13:16:45.515Z,12.60
2019-01-15T13:19:29.865Z,12.43
2019-01-15T13:22:21.619Z,10.77
2019-01-15T13:25:13.507Z,12.83
2019-01-15T13:27:56.298Z,9.73
2019-01-15T13:30:51.577Z,10.63
2019-01-15T13:33:52.732Z,13.77
2019-01-15T13:36:56.864Z,14.47
2019-01-15T13:39:52.069Z,16.30
2019-01-15T13:42:47.947Z,16.60
2019-01-15T13:45:41.751Z,16.37
2019-01-15T13:48:27.210Z,16.93
2019-01-15T13:51:04.755Z,14.70
2019-01-15T13:54:11.913Z,21.73
2019-01-15T13:56:52.547Z,17.70
2019-01-15T13:59:47.892Z,16.60
2019-01-15T14:02:49.464Z,12.13
2019-01-15T14:05:47.741Z,17.40
2019-01-15T14:08:40.452Z,21.30
2019-01-15T14:11:29.644Z,14.57
2019-01-15T14:14:17.358Z,15.20
2019-01-15T14:17:14.658Z,12.00
2019-01-15T14:20:12.633Z,15.10
2019-01-15T14:23:00.411Z,13.60
2019-01-15T14:25:55.515Z,13.50
2019-01-15T14:28:43.551Z,13.47
2019-01-15T14:31:32.723Z,10.03
2019-01-15T14:34:21.747Z,12.30
2019-01-15T14:37:17.453Z,15.57
2019-01-15T14:40:05.408Z,12.77
2019-01-15T14:43:08.651Z,12.53
2019-01-15T14:46:00.363Z,10.10
2019-01-15T14:48:47.385Z,16.70
2019-01-15T14:51:39.824Z,15.17
2019-01-15T14:54:31.805Z,12.03
2019-01-15T14:57:12.286Z,14.13
2019-01-15T15:00:10.426Z,12.33
2019-01-15T15:03:02.702Z,14.73
2019-01-15T15:05:39.072Z,18.90
2019-01-15T15:08:26.723Z,13.63
2019-01-15T15:11:16.375Z,13.77
2019-01-15T15:14:11.374Z,16.30
2019-01-15T15:17:12.834Z,16.53
2019-01-15T15:19:56.433Z,17.50
2019-01-15T15:22:45.789Z,18.73
2019-01-15T15:25:33.195Z,16.20
2019-01-15T15:28:20.479Z,17.10
2019-01-15T15:31:08.406Z,14.63
2019-01-15T15:34:15.183Z,13.63
2019-01-15T15:37:02.890Z,19.23
2019-01-15T15:39:52.643Z,15.47
2019-01-15T15:42:55.762Z,15.17
2019-01-15T15:45:43.920Z,18.37
2019-01-15T15:48:33.229Z,30.87
2019-01-15T15:51:29.047Z,44.57
2019-01-15T15:54:11.198Z,45.53
2019-01-15T15:57:03.362Z,15.60
2019-01-15T15:59:51.432Z,31.63
2019-01-15T16:02:42.055Z,22.90
2019-01-15T16:05:31.325Z,24.30
2019-01-15T16:08:35.756Z,17.47
2019-01-15T16:11:23.763Z,23.30
2019-01-15T16:14:15.930Z,20.93
2019-01-15T16:17:06.845Z,17.07
2019-01-15T16:20:06.267Z,23.73
2019-01-15T16:23:19.383Z,19.00
2019-01-15T16:26:06.651Z,17.80
2019-01-15T16:28:58.539Z,18.50
2019-01-15T16:31:50.382Z,18.03
2019-01-15T16:34:54.707Z,17.53
2019-01-15T16:37:49.588Z,18.70
2019-01-15T16:40:45.548Z,14.73
2019-01-15T16:43:49.974Z,15.43
2019-01-15T16:46:38.522Z,17.20
2019-01-15T16:49:27.453Z,16.57
2019-01-15T16:52:17.041Z,14.87
2019-01-15T16:55:12.497Z,17.00
2019-01-15T16:58:20.529Z,21.70
2019-01-15T17:01:22.991Z,18.47
2019-01-15T17:04:12.032Z,14.93
2019-01-15T17:07:04.964Z,16.77
2019-01-15T17:09:54.469Z,19.30
2019-01-15T17:12:49.674Z,20.20
2019-01-15T17:15:37.790Z,16.83
2019-01-15T17:18:30.206Z,19.50
2019-01-15T17:21:19.258Z,21.07
2019-01-15T17:24:03.507Z,21.67
2019-01-15T17:26:57.857Z,20.13
2019-01-15T17:29:44.746Z,18.73
2019-01-15T17:32:43.899Z,22.10
2019-01-15T17:35:40.659Z,28.13
2019-01-15T17:38:43.545Z,24.10
2019-01-15T17:41:36.794Z,24.33
2019-01-15T17:44:37.535Z,25.57
2019-01-15T17:47:42.701Z,26.07
2019-01-15T17:50:42.382Z,31.60
2019-01-15T17:53:41.198Z,29.00
2019-01-15T17:56:40.196Z,22.50
2019-01-15T17:59:39.314Z,25.40
2019-01-15T18:02:38.434Z,27.10
2019-01-15T18:05:52.108Z,30.53
2019-01-15T18:09:05.969Z,27.60
2019-01-15T18:12:03.255Z,27.70
2019-01-15T18:15:04.382Z,31.07
2019-01-15T18:18:12.662Z,25.77
2019-01-15T18:21:15.375Z,23.73
2019-01-15T18:24:09.640Z,28.80
2019-01-15T18:27:12.340Z,29.80
2019-01-15T18:30:13.722Z,30.63
2019-01-15T18:33:02.712Z,28.57
2019-01-15T18:35:51.757Z,30.47
2019-01-15T18:38:40.993Z,31.40
2019-01-15T18:41:39.228Z,30.63
2019-01-15T18:44:28.233Z,27.57
2019-01-15T18:47:14.464Z,27.17
2019-01-15T18:50:12.787Z,22.33
2019-01-15T18:53:06.133Z,24.93
2019-01-15T18:56:07.584Z,23.83
2019-01-15T18:58:56.592Z,24.13
2019-01-15T19:01:51.603Z,19.37
2019-01-15T19:04:39.643Z,22.10
2019-01-15T19:07:29.286Z,23.80
2019-01-15T19:10:22.178Z,26.23
2019-01-15T19:13:26.524Z,23.40
2019-01-15T19:16:20.957Z,20.13
2019-01-15T19:19:10.005Z,27.10
2019-01-15T19:22:14.772Z,23.03
2019-01-15T19:25:16.055Z,21.60
2019-01-15T19:27:56.923Z,23.23
2019-01-15T19:30:51.847Z,20.40
2019-01-15T19:33:40.903Z,22.90
2019-01-15T19:36:32.707Z,21.80
2019-01-15T19:39:27.665Z,19.23
2019-01-15T19:42:10.565Z,22.53
2019-01-15T19:44:58.328Z,21.43
2019-01-15T19:47:46.273Z,21.90
2019-01-15T19:50:44.331Z,19.07
2019-01-15T19:53:32.239Z,21.30
2019-01-15T19:56:21.767Z,20.67
2019-01-15T19:59:19.666Z,21.90
2019-01-15T20:02:07.574Z,17.83
2019-01-15T20:04:59.446Z,16.03
2019-01-15T20:07:47.268Z,19.47
2019-01-15T20:10:35.204Z,20.83
2019-01-15T20:13:24.290Z,18.10
2019-01-15T20:16:13.382Z,21.53
2019-01-15T20:19:02.687Z,19.20
2019-01-15T20:21:50.438Z,20.70
2019-01-15T20:24:39.862Z,22.70
2019-01-15T20:27:32.393Z,20.60
2019-01-15T20:30:21.437Z,18.50
2019-01-15T20:33:19.797Z,16.70
2019-01-15T20:36:09.283Z,16.93
2019-01-15T20:39:07.183Z,15.40
2019-01-15T20:41:49.415Z,15.27
2019-01-15T20:44:46.062Z,13.90
2019-01-15T20:47:39.844Z,15.63
2019-01-15T20:50:28.973Z,16.63
2019-01-15T20:53:15.131Z,15.37
2019-01-15T20:56:02.798Z,12.57
2019-01-15T20:59:00.967Z,14.33
2019-01-15T21:02:08.124Z,17.47
2019-01-15T21:04:57.713Z,14.20
2019-01-15T21:07:46.806Z,13.47
2019-01-15T21:10:42.575Z,12.87
2019-01-15T21:13:35.100Z,13.33
2019-01-15T21:16:22.547Z,13.37
2019-01-15T21:19:17.674Z,12.43
2019-01-15T21:22:14.364Z,14.23
2019-01-15T21:25:21.822Z,17.03
2019-01-15T21:28:01.148Z,13.17
2019-01-15T21:30:51.230Z,11.63
2019-01-15T21:33:46.630Z,10.40
2019-01-15T21:36:51.814Z,11.70
2019-01-15T21:39:40.212Z,9.97
2019-01-15T21:42:29.385Z,11.00
2019-01-15T21:48:08.566Z,9.00
2019-01-15T21:50:55.512Z,9.20
2019-01-15T21:53:43.142Z,9.70
2019-01-15T21:56:41.201Z,12.03
2019-01-15T21:59:42.246Z,10.00
2019-01-15T22:02:30.025Z,9.40
2019-01-15T22:05:17.695Z,10.77
2019-01-15T22:08:06.698Z,11.87
2019-01-15T22:10:55.481Z,9.73
2019-01-15T22:13:45.715Z,8.37
2019-01-15T22:16:30.110Z,8.43
2019-01-15T22:19:26.124Z,11.10
2019-01-15T22:22:14.132Z,9.60
2019-01-15T22:25:03.252Z,9.13
2019-01-15T22:28:01.186Z,8.17
2019-01-15T22:30:44.067Z,8.47
2019-01-15T22:33:45.467Z,8.63
2019-01-15T22:36:38.645Z,8.43
2019-01-15T22:39:31.688Z,9.10
2019-01-15T22:42:19.582Z,9.10
2019-01-15T22:45:17.688Z,10.00
2019-01-15T22:48:09.812Z,8.87
2019-01-15T22:50:55.637Z,10.90
2019-01-15T22:53:56.844Z,9.77
2019-01-15T22:56:40.833Z,8.60
2019-01-15T22:59:48.463Z,8.80
2019-01-15T23:02:40.213Z,7.10
2019-01-15T23:05:41.252Z,7.37
2019-01-15T23:08:30.223Z,7.07
2019-01-15T23:11:22.034Z,7.67
2019-01-15T23:14:09.827Z,7.97
2019-01-15T23:16:58.844Z,7.90
2019-01-15T23:19:54.114Z,7.70
2019-01-15T23:22:42.045Z,8.47
2019-01-15T23:25:31.175Z,7.63
2019-01-15T23:28:20.974Z,7.40
2019-01-15T23:31:16.015Z,6.70
2019-01-15T23:33:57.581Z,6.73
2019-01-15T23:36:46.602Z,7.63
2019-01-15T23:39:41.002Z,8.00
2019-01-15T23:42:30.023Z,7.67
2019-01-15T23:45:18.308Z,9.40
2019-01-15T23:48:11.357Z,8.07
2019-01-15T23:50:59.613Z,11.10
2019-01-15T23:53:55.331Z,10.23
2019-01-15T23:56:43.543Z,9.20
2019-01-15T23:59:39.226Z,8.40
